createdAt,value
2019-03-11T00:00:05.702Z,11.30
2019-03-11T00:02:37.266Z,13.43
2019-03-11T00:05:09.432Z,9.38
2019-03-11T00:07:40.768Z,9.45
2019-03-11T00:10:12.561Z,9.35
2019-03-11T00:12:44.171Z,8.25
2019-03-11T00:15:15.460Z,9.03
2019-03-11T00:17:47.358Z,10.93
2019-03-11T00:20:18.011Z,6.12
2019-03-11T00:22:49.561Z,7.72
2019-03-11T00:25:21.118Z,12.05
2019-03-11T00:27:52.672Z,11.05
2019-03-11T00:30:24.687Z,8.30
2019-03-11T00:32:55.676Z,11.55
2019-03-11T00:35:26.958Z,9.35
2019-03-11T00:37:59.011Z,10.68
2019-03-11T00:40:30.172Z,9.28
2019-03-11T00:43:01.446Z,8.15
2019-03-11T00:45:33.042Z,12.20
2019-03-11T00:48:05.449Z,12.40
2019-03-11T00:50:37.039Z,8.40
2019-03-11T00:53:09.014Z,13.00
2019-03-11T00:55:40.584Z,21.10
2019-03-11T00:58:12.471Z,7.92
2019-03-11T01:00:44.337Z,11.57
2019-03-11T01:03:15.890Z,15.32
2019-03-11T01:05:47.274Z,11.75
2019-03-11T01:08:18.261Z,9.88
2019-03-11T01:10:49.517Z,13.35
2019-03-11T01:13:20.760Z,15.68
2019-03-11T01:15:52.127Z,18.60
2019-03-11T01:18:23.882Z,8.65
2019-03-11T01:20:55.429Z,9.63
2019-03-11T01:23:26.823Z,8.93
2019-03-11T01:25:58.446Z,12.98
2019-03-11T01:28:29.302Z,6.17
2019-03-11T01:31:00.830Z,8.93
2019-03-11T01:33:32.064Z,15.05
2019-03-11T01:36:03.258Z,10.65
2019-03-11T01:38:34.838Z,15.40
2019-03-11T01:41:06.594Z,14.05
2019-03-11T01:43:37.571Z,10.63
2019-03-11T01:46:09.389Z,12.13
2019-03-11T01:48:40.792Z,18.90
2019-03-11T01:51:12.390Z,10.65
2019-03-11T01:53:44.410Z,9.53
2019-03-11T01:56:15.622Z,9.28
2019-03-11T01:58:47.472Z,19.50
2019-03-11T02:01:18.708Z,16.23
2019-03-11T02:03:50.832Z,17.12
2019-03-11T02:06:22.391Z,6.47
2019-03-11T02:08:54.179Z,15.18
2019-03-11T02:11:25.154Z,14.65
2019-03-11T02:13:56.491Z,19.45
2019-03-11T02:16:27.179Z,17.15
2019-03-11T02:18:58.488Z,16.15
2019-03-11T02:21:30.070Z,11.55
2019-03-11T02:24:01.794Z,12.80
2019-03-11T02:26:33.125Z,18.10
2019-03-11T02:29:04.557Z,11.53
2019-03-11T02:31:36.738Z,11.00
2019-03-11T02:34:08.674Z,7.00
2019-03-11T02:36:39.704Z,11.70
2019-03-11T02:39:11.486Z,11.08
2019-03-11T02:41:43.210Z,13.43
2019-03-11T02:44:15.045Z,13.10
2019-03-11T02:46:46.317Z,13.88
2019-03-11T02:49:17.633Z,13.62
2019-03-11T02:51:48.931Z,14.80
2019-03-11T02:54:20.332Z,8.90
2019-03-11T02:56:51.916Z,13.00
2019-03-11T02:59:23.485Z,13.32
2019-03-11T03:02:22.914Z,12.03
2019-03-11T03:05:10.634Z,6.58
2019-03-11T03:07:41.551Z,16.20
2019-03-11T03:10:13.337Z,13.62
2019-03-11T03:12:45.229Z,11.05
2019-03-11T03:15:16.667Z,16.95
2019-03-11T03:17:48.221Z,17.17
2019-03-11T03:20:19.647Z,5.87
2019-03-11T03:22:51.294Z,15.38
2019-03-11T03:25:33.057Z,17.07
2019-03-11T03:27:55.550Z,6.62
2019-03-11T03:30:27.031Z,7.20
2019-03-11T03:32:58.390Z,11.53
2019-03-11T03:35:29.619Z,10.38
2019-03-11T03:38:01.549Z,16.70
2019-03-11T03:40:33.160Z,7.20
2019-03-11T03:43:04.616Z,11.90
2019-03-11T03:45:40.349Z,12.68
2019-03-11T03:48:12.078Z,13.25
2019-03-11T03:50:43.139Z,9.58
2019-03-11T03:53:14.536Z,10.35
2019-03-11T03:55:46.409Z,11.38
2019-03-11T03:58:18.446Z,8.80
2019-03-11T04:00:49.996Z,6.85
2019-03-11T04:03:21.332Z,10.48
2019-03-11T04:05:52.875Z,17.87
2019-03-11T04:08:24.411Z,10.63
2019-03-11T04:10:56.021Z,10.55
2019-03-11T04:13:27.581Z,11.43
2019-03-11T04:15:59.217Z,10.98
2019-03-11T04:18:53.831Z,17.40
2019-03-11T04:21:24.771Z,9.68
2019-03-11T04:23:56.042Z,11.45
2019-03-11T04:26:31.758Z,9.00
2019-03-11T04:29:03.120Z,10.68
2019-03-11T04:31:34.669Z,10.48
2019-03-11T04:34:05.923Z,6.25
2019-03-11T04:36:37.769Z,11.68
2019-03-11T04:39:09.454Z,14.93
2019-03-11T04:41:40.384Z,7.35
2019-03-11T04:44:12.321Z,7.53
2019-03-11T04:46:43.594Z,14.18
2019-03-11T04:49:15.246Z,8.15
2019-03-11T04:51:46.796Z,7.15
2019-03-11T04:54:18.111Z,10.50
2019-03-11T04:56:50.029Z,6.20
2019-03-11T04:59:38.617Z,8.35
2019-03-11T05:02:20.678Z,8.65
2019-03-11T05:04:53.417Z,6.35
2019-03-11T05:07:27.225Z,5.42
2019-03-11T05:10:03.908Z,11.00
2019-03-11T05:12:43.333Z,7.90
2019-03-11T05:15:17.793Z,5.92
2019-03-11T05:17:55.397Z,4.33
2019-03-11T05:20:41.960Z,7.53
2019-03-11T05:23:13.275Z,3.98
2019-03-11T05:25:45.060Z,7.45
2019-03-11T05:28:23.661Z,4.80
2019-03-11T05:31:15.062Z,8.00
2019-03-11T05:33:51.367Z,5.47
2019-03-11T05:36:30.162Z,5.70
2019-03-11T05:39:10.471Z,4.67
2019-03-11T05:41:59.150Z,4.85
2019-03-11T05:44:32.401Z,4.47
2019-03-11T05:47:14.117Z,7.20
2019-03-11T05:49:49.057Z,5.40
2019-03-11T05:52:30.634Z,5.15
2019-03-11T05:55:02.222Z,6.22
2019-03-11T05:57:57.887Z,3.10
2019-03-11T06:00:45.207Z,3.45
2019-03-11T06:03:30.253Z,5.28
2019-03-11T06:06:12.346Z,4.67
2019-03-11T06:08:47.567Z,7.58
2019-03-11T06:11:24.204Z,3.60
2019-03-11T06:13:57.524Z,3.02
2019-03-11T06:16:29.819Z,6.67
2019-03-11T06:19:01.133Z,3.98
2019-03-11T06:21:57.507Z,5.87
2019-03-11T06:24:30.563Z,1.02
2019-03-11T06:27:02.719Z,2.08
2019-03-11T06:29:34.421Z,0.80
2019-03-11T06:32:06.198Z,1.57
2019-03-11T06:34:38.101Z,1.60
2019-03-11T06:37:09.407Z,3.12
2019-03-11T06:39:40.600Z,2.62
2019-03-11T06:42:13.080Z,1.87
2019-03-11T06:44:47.660Z,4.42
2019-03-11T06:47:23.819Z,6.25
2019-03-11T06:49:58.002Z,3.00
2019-03-11T06:57:16.795Z,8.45
2019-03-11T07:02:57.103Z,1.55
2019-03-11T07:05:47.329Z,1.25
2019-03-11T07:08:29.508Z,6.22
2019-03-11T07:11:08.314Z,3.42
2019-03-11T07:13:42.639Z,1.35
2019-03-11T07:16:16.592Z,4.28
2019-03-11T07:18:48.560Z,1.37
2019-03-11T07:21:29.821Z,8.58
2019-03-11T07:24:05.874Z,0.80
2019-03-11T07:26:49.467Z,1.17
2019-03-11T07:29:30.758Z,1.55
2019-03-11T07:32:02.306Z,5.35
2019-03-11T07:34:35.481Z,1.20
2019-03-11T07:37:13.503Z,0.90
2019-03-11T07:39:45.861Z,1.82
2019-03-11T07:42:19.664Z,4.72
2019-03-11T07:45:02.066Z,2.15
2019-03-11T07:47:34.444Z,2.02
2019-03-11T07:50:05.623Z,1.85
2019-03-11T07:52:37.757Z,2.47
2019-03-11T07:55:15.795Z,4.22
2019-03-11T07:57:47.589Z,2.60
2019-03-11T08:00:28.091Z,3.27
2019-03-11T08:03:04.604Z,1.70
2019-03-11T08:05:35.869Z,4.87
2019-03-11T08:08:07.443Z,1.70
2019-03-11T08:10:38.749Z,1.45
2019-03-11T08:13:10.314Z,6.33
2019-03-11T08:15:42.186Z,4.28
2019-03-11T08:18:13.806Z,2.42
2019-03-11T08:20:45.209Z,4.62
2019-03-11T08:23:17.148Z,1.00
2019-03-11T08:25:49.935Z,2.67
2019-03-11T08:28:22.843Z,3.47
2019-03-11T08:30:54.088Z,5.83
2019-03-11T08:33:25.033Z,4.53
2019-03-11T08:35:56.283Z,2.20
2019-03-11T08:38:27.478Z,6.15
2019-03-11T08:40:59.082Z,2.40
2019-03-11T08:43:30.376Z,4.20
2019-03-11T08:46:01.677Z,1.75
2019-03-11T08:48:33.127Z,4.03
2019-03-11T08:51:04.648Z,3.50
2019-03-11T08:53:36.144Z,1.17
2019-03-11T08:56:07.425Z,5.05
2019-03-11T08:58:39.477Z,4.10
2019-03-11T09:01:11.132Z,3.98
2019-03-11T09:03:42.689Z,6.33
2019-03-11T09:06:14.254Z,5.03
2019-03-11T09:08:45.808Z,1.17
2019-03-11T09:11:17.058Z,5.22
2019-03-11T09:13:48.607Z,3.80
2019-03-11T09:16:20.171Z,2.45
2019-03-11T09:18:52.013Z,6.97
2019-03-11T09:21:24.022Z,4.45
2019-03-11T09:23:55.656Z,4.75
2019-03-11T09:26:26.946Z,3.15
2019-03-11T09:28:58.496Z,3.77
2019-03-11T09:31:29.724Z,2.60
2019-03-11T09:34:01.261Z,3.42
2019-03-11T09:36:32.860Z,3.55
2019-03-11T09:39:05.565Z,2.25
2019-03-11T09:41:37.385Z,2.15
2019-03-11T09:44:09.266Z,1.57
2019-03-11T09:46:40.578Z,1.75
2019-03-11T09:49:12.165Z,1.62
2019-03-11T09:51:43.485Z,1.90
2019-03-11T09:54:14.710Z,4.87
2019-03-11T09:56:46.440Z,2.22
2019-03-11T09:59:18.381Z,2.87
2019-03-11T10:01:50.080Z,5.10
2019-03-11T10:04:21.333Z,7.80
2019-03-11T10:06:52.987Z,2.87
2019-03-11T10:09:23.982Z,3.30
2019-03-11T10:11:55.553Z,5.15
2019-03-11T10:14:27.121Z,3.87
2019-03-11T10:16:58.119Z,5.42
2019-03-11T10:19:29.364Z,4.12
2019-03-11T10:22:00.591Z,2.77
2019-03-11T10:24:32.359Z,2.52
2019-03-11T10:27:03.907Z,2.33
2019-03-11T10:29:35.296Z,2.50
2019-03-11T10:32:06.872Z,4.08
2019-03-11T10:34:38.235Z,4.80
2019-03-11T10:37:09.241Z,3.92
2019-03-11T10:39:40.473Z,6.05
2019-03-11T10:42:12.039Z,2.45
2019-03-11T10:44:43.667Z,3.02
2019-03-11T10:47:15.715Z,3.92
2019-03-11T10:49:47.236Z,9.00
2019-03-11T10:52:18.856Z,7.22
2019-03-11T10:54:50.386Z,2.45
2019-03-11T10:57:22.012Z,4.37
2019-03-11T10:59:53.818Z,2.05
2019-03-11T11:02:25.403Z,9.28
2019-03-11T11:04:56.944Z,1.87
2019-03-11T11:07:28.244Z,3.67
2019-03-11T11:13:29.256Z,1.98
2019-03-11T11:16:01.107Z,3.33
2019-03-11T11:18:32.962Z,5.05
2019-03-11T11:21:04.568Z,8.93
2019-03-11T11:23:36.345Z,1.30
2019-03-11T11:26:07.477Z,3.33
2019-03-11T11:28:39.053Z,2.35
2019-03-11T11:31:10.633Z,1.52
2019-03-11T11:33:42.605Z,1.77
2019-03-11T11:36:14.344Z,4.58
2019-03-11T11:38:45.037Z,2.92
2019-03-11T11:41:16.684Z,4.53
2019-03-11T11:43:48.404Z,4.42
2019-03-11T11:46:19.816Z,5.95
2019-03-11T11:48:50.779Z,5.67
2019-03-11T11:51:22.402Z,5.37
2019-03-11T11:53:54.293Z,4.65
2019-03-11T11:56:28.812Z,6.70
2019-03-11T11:59:00.376Z,1.45
2019-03-11T12:01:31.787Z,2.30
2019-03-11T12:04:03.164Z,1.70
2019-03-11T12:06:34.810Z,2.08
2019-03-11T12:09:07.118Z,2.62
2019-03-11T12:11:38.560Z,0.82
2019-03-11T12:14:10.127Z,2.10
2019-03-11T12:16:42.173Z,3.33
2019-03-11T12:19:13.795Z,0.90
2019-03-11T12:21:46.211Z,1.85
2019-03-11T12:24:18.545Z,1.05
2019-03-11T12:26:51.575Z,1.67
2019-03-11T12:29:23.446Z,1.10
2019-03-11T12:31:54.943Z,2.77
2019-03-11T12:34:26.524Z,2.55
2019-03-11T12:36:58.109Z,1.00
2019-03-11T12:39:29.800Z,1.20
2019-03-11T12:42:01.655Z,4.17
2019-03-11T12:44:32.930Z,1.32
2019-03-11T12:47:03.945Z,1.87
2019-03-11T12:49:35.182Z,1.80
2019-03-11T12:52:06.717Z,1.00
2019-03-11T12:54:38.239Z,3.75
2019-03-11T12:57:09.537Z,1.22
2019-03-11T12:59:41.298Z,2.98
2019-03-11T13:02:12.960Z,2.27
2019-03-11T13:04:44.582Z,3.55
2019-03-11T13:07:16.503Z,2.33
2019-03-11T13:09:47.109Z,2.25
2019-03-11T13:12:18.709Z,1.92
2019-03-11T13:14:52.401Z,2.27
2019-03-11T13:17:23.525Z,2.47
2019-03-11T13:19:56.255Z,5.55
2019-03-11T13:22:27.595Z,2.77
2019-03-11T13:24:59.138Z,0.93
2019-03-11T13:27:31.250Z,2.08
2019-03-11T13:30:05.255Z,3.35
2019-03-11T13:32:38.317Z,1.15
2019-03-11T13:35:10.687Z,2.25
2019-03-11T13:37:42.914Z,1.25
2019-03-11T13:40:15.067Z,1.25
2019-03-11T13:42:46.971Z,1.25
2019-03-11T13:45:18.906Z,3.80
2019-03-11T13:47:50.758Z,1.17
2019-03-11T13:50:22.155Z,2.95
2019-03-11T13:52:53.417Z,1.90
2019-03-11T13:55:25.287Z,6.75
2019-03-11T13:57:57.274Z,9.88
2019-03-11T14:00:29.142Z,3.30
2019-03-11T14:03:00.998Z,2.27
2019-03-11T14:05:32.595Z,3.62
2019-03-11T14:08:04.310Z,0.95
2019-03-11T14:10:36.524Z,4.60
2019-03-11T14:13:07.721Z,2.70
2019-03-11T14:15:39.419Z,0.70
2019-03-11T14:18:12.906Z,4.72
2019-03-11T14:20:44.826Z,1.85
2019-03-11T14:23:16.707Z,3.67
2019-03-11T14:25:48.886Z,4.55
2019-03-11T14:28:21.716Z,1.37
2019-03-11T14:30:54.912Z,4.37
2019-03-11T14:33:27.109Z,3.83
2019-03-11T14:35:58.979Z,2.02
2019-03-11T14:38:30.792Z,3.25
2019-03-11T14:41:02.803Z,1.90
2019-03-11T14:43:34.817Z,3.70
2019-03-11T14:46:06.141Z,1.50
2019-03-11T14:48:38.165Z,4.03
2019-03-11T14:51:09.984Z,3.27
2019-03-11T14:53:41.872Z,4.60
2019-03-11T14:56:13.563Z,1.50
2019-03-11T14:58:44.849Z,2.10
2019-03-11T15:01:16.205Z,3.98
2019-03-11T15:03:48.079Z,3.65
2019-03-11T15:06:18.508Z,3.83
2019-03-11T15:08:49.768Z,1.57
2019-03-11T15:11:20.719Z,1.45
2019-03-11T15:13:51.677Z,1.67
2019-03-11T15:16:25.588Z,1.10
2019-03-11T15:18:57.006Z,3.22
2019-03-11T15:21:28.600Z,2.60
2019-03-11T15:24:00.179Z,1.90
2019-03-11T15:26:32.185Z,2.02
2019-03-11T15:29:03.743Z,3.67
2019-03-11T15:31:34.884Z,3.22
2019-03-11T15:34:06.897Z,1.12
2019-03-11T15:36:38.522Z,2.10
2019-03-11T15:39:09.516Z,2.87
2019-03-11T15:41:40.879Z,0.90
2019-03-11T15:44:12.580Z,2.05
2019-03-11T15:46:50.570Z,1.15
2019-03-11T15:49:22.400Z,1.15
2019-03-11T15:51:53.991Z,1.80
2019-03-11T15:54:25.551Z,0.93
2019-03-11T15:56:56.617Z,1.15
2019-03-11T15:59:28.435Z,0.88
2019-03-11T16:02:02.050Z,1.02
2019-03-11T16:04:33.827Z,1.05
2019-03-11T16:07:05.753Z,1.60
2019-03-11T16:09:36.974Z,3.05
2019-03-11T16:12:08.895Z,2.95
2019-03-11T16:14:48.935Z,2.52
2019-03-11T16:17:14.788Z,1.70
2019-03-11T16:19:46.474Z,3.70
2019-03-11T16:22:23.320Z,1.22
2019-03-11T16:24:53.902Z,2.75
2019-03-11T16:27:26.313Z,2.30
2019-03-11T16:30:07.070Z,1.30
2019-03-11T16:32:38.100Z,2.22
2019-03-11T16:35:10.095Z,2.95
2019-03-11T16:37:42.901Z,2.75
2019-03-11T16:40:15.412Z,1.60
2019-03-11T16:42:46.746Z,2.65
2019-03-11T16:45:18.932Z,3.37
2019-03-11T16:47:50.679Z,1.90
2019-03-11T16:50:22.047Z,2.50
2019-03-11T16:52:53.845Z,2.50
2019-03-11T16:55:28.085Z,1.98
2019-03-11T16:57:59.681Z,1.65
2019-03-11T17:00:35.593Z,1.45
2019-03-11T17:03:07.716Z,2.70
2019-03-11T17:05:39.645Z,1.75
2019-03-11T17:08:11.555Z,3.27
2019-03-11T17:10:42.780Z,4.00
2019-03-11T17:13:14.722Z,7.58
2019-03-11T17:15:46.286Z,2.58
2019-03-11T17:18:17.617Z,2.98
2019-03-11T17:20:49.498Z,1.50
2019-03-11T17:23:20.752Z,2.00
2019-03-11T17:25:51.722Z,1.30
2019-03-11T17:28:23.679Z,2.33
2019-03-11T17:30:54.682Z,1.50
2019-03-11T17:33:25.697Z,1.20
2019-03-11T17:35:57.625Z,3.98
2019-03-11T17:38:29.555Z,2.52
2019-03-11T17:41:01.584Z,2.10
2019-03-11T17:43:33.297Z,1.55
2019-03-11T17:46:05.106Z,1.95
2019-03-11T17:48:36.335Z,3.98
2019-03-11T17:51:08.201Z,3.62
2019-03-11T17:53:39.517Z,3.72
2019-03-11T17:56:11.093Z,1.20
2019-03-11T17:58:42.664Z,1.37
2019-03-11T18:01:14.009Z,3.00
2019-03-11T18:03:45.551Z,3.20
2019-03-11T18:06:17.709Z,3.85
2019-03-11T18:08:49.680Z,2.55
2019-03-11T18:11:22.608Z,2.58
2019-03-11T18:13:54.580Z,3.33
2019-03-11T18:16:27.247Z,3.50
2019-03-11T18:18:59.045Z,7.22
2019-03-11T18:21:31.295Z,1.35
2019-03-11T18:24:02.654Z,3.00
2019-03-11T18:26:33.681Z,1.10
2019-03-11T18:29:05.002Z,1.45
2019-03-11T18:31:36.890Z,2.12
2019-03-11T18:34:09.823Z,2.00
2019-03-11T18:36:41.740Z,1.60
2019-03-11T18:39:13.833Z,8.83
2019-03-11T18:41:45.201Z,5.55
2019-03-11T18:44:17.127Z,1.75
2019-03-11T18:46:49.028Z,2.15
2019-03-11T18:49:21.435Z,2.70
2019-03-11T18:51:53.030Z,11.93
2019-03-11T18:54:29.278Z,3.25
2019-03-11T18:57:02.236Z,4.47
2019-03-11T18:59:33.862Z,4.87
2019-03-11T19:02:05.931Z,3.52
2019-03-11T19:04:38.721Z,4.65
2019-03-11T19:07:11.800Z,4.22
2019-03-11T19:09:46.324Z,4.60
2019-03-11T19:12:18.410Z,3.35
2019-03-11T19:14:50.768Z,4.08
2019-03-11T19:17:24.345Z,3.33
2019-03-11T19:19:56.108Z,10.43
2019-03-11T19:22:29.632Z,1.70
2019-03-11T19:25:02.364Z,3.40
2019-03-11T19:27:34.748Z,2.15
2019-03-11T19:30:06.933Z,3.45
2019-03-11T19:32:40.663Z,3.60
2019-03-11T19:35:12.810Z,2.27
2019-03-11T19:37:46.254Z,2.10
2019-03-11T19:40:19.585Z,3.05
2019-03-11T19:42:52.053Z,3.52
2019-03-11T19:45:24.878Z,4.95
2019-03-11T19:47:55.976Z,6.05
2019-03-11T19:50:27.494Z,4.45
2019-03-11T19:52:59.659Z,3.30
2019-03-11T19:55:32.145Z,3.27
2019-03-11T19:58:05.442Z,2.95
2019-03-11T20:00:37.745Z,8.78
2019-03-11T20:03:22.659Z,5.17
2019-03-11T20:05:42.850Z,6.33
2019-03-11T20:08:15.189Z,5.75
2019-03-11T20:10:46.222Z,1.47
2019-03-11T20:13:18.406Z,2.37
2019-03-11T20:15:53.678Z,4.42
2019-03-11T20:18:27.045Z,5.55
2019-03-11T20:20:58.625Z,8.50
2019-03-11T20:23:31.026Z,3.22
2019-03-11T20:26:03.277Z,4.10
2019-03-11T20:28:35.803Z,4.17
2019-03-11T20:31:07.494Z,3.90
2019-03-11T20:33:39.140Z,5.55
2019-03-11T20:36:20.987Z,6.30
2019-03-11T20:38:45.530Z,1.70
2019-03-11T20:41:17.154Z,3.72
2019-03-11T20:43:49.111Z,7.47
2019-03-11T20:46:21.394Z,2.98
2019-03-11T20:48:53.160Z,8.25
2019-03-11T20:51:25.135Z,5.15
2019-03-11T20:53:56.976Z,5.95
2019-03-11T20:56:30.272Z,3.25
2019-03-11T20:59:02.763Z,3.22
2019-03-11T21:01:35.222Z,5.78
2019-03-11T21:04:08.267Z,2.20
2019-03-11T21:06:40.135Z,2.10
2019-03-11T21:09:13.801Z,4.05
2019-03-11T21:11:46.356Z,3.30
2019-03-11T21:14:18.644Z,7.62
2019-03-11T21:16:50.667Z,6.50
2019-03-11T21:19:22.989Z,4.25
2019-03-11T21:21:54.574Z,3.70
2019-03-11T21:24:26.984Z,5.08
2019-03-11T21:26:59.210Z,4.72
2019-03-11T21:29:30.456Z,2.75
2019-03-11T21:32:02.154Z,2.62
2019-03-11T21:34:33.987Z,5.95
2019-03-11T21:37:05.838Z,3.20
2019-03-11T21:39:38.258Z,7.90
2019-03-11T21:42:10.370Z,6.62
2019-03-11T21:44:43.669Z,5.40
2019-03-11T21:47:15.715Z,3.42
2019-03-11T21:49:47.119Z,6.15
2019-03-11T21:52:18.609Z,5.08
2019-03-11T21:54:49.971Z,3.85
2019-03-11T21:57:21.938Z,2.80
2019-03-11T21:59:53.675Z,3.40
2019-03-11T22:02:24.924Z,4.45
2019-03-11T22:04:56.538Z,3.58
2019-03-11T22:07:28.515Z,3.85
2019-03-11T22:09:59.986Z,6.75
2019-03-11T22:12:37.289Z,3.77
2019-03-11T22:19:20.424Z,3.90
2019-03-11T22:21:54.222Z,2.67
2019-03-11T22:24:46.362Z,4.58
2019-03-11T22:27:36.397Z,2.65
2019-03-11T22:36:16.241Z,4.78
2019-03-11T22:38:47.485Z,2.85
2019-03-11T22:41:18.754Z,4.90
2019-03-11T22:43:50.399Z,7.12
2019-03-11T22:46:22.005Z,4.12
2019-03-11T22:48:53.629Z,2.12
2019-03-11T22:51:25.808Z,7.03
2019-03-11T22:53:57.659Z,4.15
2019-03-11T22:56:28.964Z,4.40
2019-03-11T22:59:01.238Z,6.75
2019-03-11T23:01:33.270Z,6.40
2019-03-11T23:04:04.538Z,8.53
2019-03-11T23:06:56.369Z,9.40
2019-03-11T23:09:27.848Z,2.30
2019-03-11T23:11:59.501Z,6.17
2019-03-11T23:14:31.110Z,5.65
2019-03-11T23:17:02.946Z,5.08
2019-03-11T23:19:34.901Z,2.77
2019-03-11T23:22:06.427Z,3.90
2019-03-11T23:24:38.330Z,6.35
2019-03-11T23:27:09.735Z,3.33
2019-03-11T23:29:41.551Z,4.50
2019-03-11T23:32:13.205Z,1.75
2019-03-11T23:34:44.168Z,7.85
2019-03-11T23:37:18.176Z,5.37
2019-03-11T23:39:49.893Z,2.20
2019-03-11T23:42:21.759Z,5.00
2019-03-11T23:44:53.196Z,3.35
2019-03-11T23:47:24.458Z,3.90
2019-03-11T23:49:56.324Z,8.73
2019-03-11T23:52:27.644Z,3.80
2019-03-11T23:54:59.224Z,10.60
2019-03-11T23:57:30.841Z,2.87
